createdAt,value
2022-07-25T00:01:02.599Z,24.40
2022-07-25T00:04:09.482Z,24.40
2022-07-25T00:07:15.437Z,24.40
2022-07-25T00:10:18.645Z,24.30
2022-07-25T00:13:23.154Z,24.20
2022-07-25T00:16:26.322Z,24.20
2022-07-25T00:19:29.490Z,24.20
2022-07-25T00:22:32.680Z,24.20
2022-07-25T00:25:35.788Z,24.20
2022-07-25T00:28:40.226Z,24.10
2022-07-25T00:31:43.360Z,24.00
2022-07-25T00:34:46.494Z,24.00
2022-07-25T00:37:49.619Z,24.00
2022-07-25T00:40:55.441Z,23.90
2022-07-25T00:44:00.238Z,23.90
2022-07-25T00:47:03.431Z,23.90
2022-07-25T00:50:07.329Z,23.80
2022-07-25T00:53:11.293Z,23.80
2022-07-25T00:56:14.505Z,23.70
2022-07-25T00:59:19.039Z,23.60
2022-07-25T01:02:22.226Z,23.60
2022-07-25T01:05:25.581Z,23.60
2022-07-25T01:08:28.781Z,23.60
2022-07-25T01:11:32.285Z,23.60
2022-07-25T01:14:36.949Z,23.60
2022-07-25T01:17:40.060Z,23.50
2022-07-25T01:20:44.745Z,23.50
2022-07-25T01:23:47.882Z,23.40
2022-07-25T01:26:50.991Z,23.30
2022-07-25T01:29:54.071Z,23.30
2022-07-25T01:32:57.179Z,23.30
2022-07-25T01:36:02.008Z,23.30
2022-07-25T01:39:05.352Z,23.30
2022-07-25T01:42:08.638Z,23.20
2022-07-25T01:45:13.145Z,23.20
2022-07-25T01:48:16.242Z,23.20
2022-07-25T01:51:21.453Z,23.20
2022-07-25T01:54:24.793Z,23.20
2022-07-25T01:57:30.945Z,23.10
2022-07-25T02:00:34.297Z,23.10
2022-07-25T02:03:37.377Z,23.10
2022-07-25T02:06:42.558Z,23.10
2022-07-25T02:09:45.700Z,23.10
2022-07-25T02:12:48.782Z,23.00
2022-07-25T02:15:51.901Z,22.90
2022-07-25T02:18:55.138Z,22.90
2022-07-25T02:21:59.714Z,22.90
2022-07-25T02:25:02.867Z,22.90
2022-07-25T02:28:06.391Z,22.90
2022-07-25T02:31:10.064Z,22.80
2022-07-25T02:34:13.524Z,22.80
2022-07-25T02:37:18.013Z,22.80
2022-07-25T02:40:21.212Z,22.70
2022-07-25T02:43:24.371Z,22.80
2022-07-25T02:46:27.515Z,22.70
2022-07-25T02:49:30.656Z,22.60
2022-07-25T02:52:35.138Z,22.60
2022-07-25T02:55:38.254Z,22.50
2022-07-25T02:58:41.376Z,22.50
2022-07-25T03:01:44.989Z,22.50
2022-07-25T03:04:48.196Z,22.40
2022-07-25T03:07:52.715Z,22.40
2022-07-25T03:10:55.962Z,22.40
2022-07-25T03:13:59.064Z,22.30
2022-07-25T03:17:02.224Z,22.30
2022-07-25T03:20:06.849Z,22.40
2022-07-25T03:23:11.357Z,22.40
2022-07-25T03:26:14.488Z,22.30
2022-07-25T03:29:17.570Z,22.30
2022-07-25T03:32:20.799Z,22.30
2022-07-25T03:35:24.086Z,22.30
2022-07-25T03:38:29.684Z,22.30
2022-07-25T03:41:32.787Z,22.30
2022-07-25T03:44:38.054Z,22.30
2022-07-25T03:47:41.242Z,22.30
2022-07-25T03:50:44.391Z,22.20
2022-07-25T03:54:04.071Z,22.20
2022-07-25T03:57:07.612Z,22.20
2022-07-25T04:00:12.430Z,22.30
2022-07-25T04:03:15.839Z,22.30
2022-07-25T04:06:18.961Z,22.40
2022-07-25T04:09:23.490Z,22.40
2022-07-25T04:12:26.682Z,22.40
2022-07-25T04:15:29.837Z,22.40
2022-07-25T04:18:34.530Z,22.40
2022-07-25T04:21:37.736Z,22.50
2022-07-25T04:24:42.281Z,22.60
2022-07-25T04:27:45.369Z,22.50
2022-07-25T04:30:48.454Z,22.60
2022-07-25T04:33:51.589Z,22.60
2022-07-25T04:36:54.699Z,22.70
2022-07-25T04:39:59.158Z,22.80
2022-07-25T04:43:02.368Z,22.80
2022-07-25T04:46:05.539Z,22.90
2022-07-25T04:49:08.742Z,23.00
2022-07-25T04:52:11.938Z,23.10
2022-07-25T04:55:16.408Z,23.20
2022-07-25T04:58:19.769Z,23.30
2022-07-25T05:01:22.940Z,23.50
2022-07-25T05:04:26.122Z,23.60
2022-07-25T05:07:29.502Z,23.80
2022-07-25T05:10:33.979Z,24.00
2022-07-25T05:13:37.120Z,24.10
2022-07-25T05:16:40.318Z,24.20
2022-07-25T05:19:43.442Z,24.40
2022-07-25T05:22:46.564Z,24.60
2022-07-25T05:25:51.103Z,24.80
2022-07-25T05:28:54.295Z,24.90
2022-07-25T05:31:57.454Z,24.90
2022-07-25T05:35:00.636Z,24.90
2022-07-25T05:38:03.803Z,24.90
2022-07-25T05:41:08.751Z,24.90
2022-07-25T05:44:11.898Z,25.00
2022-07-25T05:47:15.816Z,25.10
2022-07-25T05:50:18.920Z,25.20
2022-07-25T05:53:22.076Z,25.50
2022-07-25T05:56:26.553Z,25.70
2022-07-25T05:59:29.836Z,26.00
2022-07-25T06:02:33.078Z,26.30
2022-07-25T06:05:36.381Z,26.70
2022-07-25T06:08:40.142Z,27.10
2022-07-25T06:11:54.422Z,27.60
2022-07-25T06:15:03.307Z,28.10
2022-07-25T06:18:06.961Z,28.80
2022-07-25T06:21:10.098Z,29.10
2022-07-25T06:24:13.212Z,29.40
2022-07-25T06:27:21.058Z,30.00
2022-07-25T06:30:25.490Z,30.80
2022-07-25T06:33:28.635Z,31.20
2022-07-25T06:36:32.792Z,31.40
2022-07-25T06:39:36.233Z,32.00
2022-07-25T06:42:41.811Z,32.40
2022-07-25T06:45:47.587Z,32.90
2022-07-25T06:48:50.956Z,33.30
2022-07-25T06:51:54.617Z,33.60
2022-07-25T06:54:57.827Z,34.20
2022-07-25T06:58:02.359Z,34.70
2022-07-25T07:01:05.598Z,34.90
2022-07-25T07:04:09.195Z,35.40
2022-07-25T07:07:12.517Z,35.90
2022-07-25T07:10:15.773Z,36.30
2022-07-25T07:13:24.173Z,36.90
2022-07-25T07:16:27.936Z,37.40
2022-07-25T07:19:31.334Z,37.50
2022-07-25T07:22:45.181Z,37.00
2022-07-25T07:25:48.531Z,37.10
2022-07-25T07:28:54.604Z,37.20
2022-07-25T07:31:57.873Z,37.90
2022-07-25T07:35:01.009Z,38.80
2022-07-25T07:38:04.269Z,39.60
2022-07-25T07:41:07.375Z,40.10
2022-07-25T07:44:11.897Z,40.60
2022-07-25T07:47:15.111Z,41.30
2022-07-25T07:50:20.194Z,41.30
2022-07-25T07:53:23.331Z,41.40
2022-07-25T07:56:25.491Z,41.10
2022-07-25T07:59:29.984Z,42.30
2022-07-25T08:02:33.101Z,42.60
2022-07-25T08:05:38.488Z,43.00
2022-07-25T08:08:41.700Z,44.30
2022-07-25T08:11:44.921Z,44.60
2022-07-25T08:14:49.448Z,45.20
2022-07-25T08:17:53.574Z,45.30
2022-07-25T08:20:57.374Z,44.60
2022-07-25T08:24:00.519Z,44.30
2022-07-25T08:27:03.736Z,43.10
2022-07-25T08:30:10.053Z,42.10
2022-07-25T08:33:16.293Z,41.60
2022-07-25T08:36:20.062Z,41.10
2022-07-25T08:39:23.224Z,40.30
2022-07-25T08:42:26.351Z,39.60
2022-07-25T08:45:30.855Z,38.50
2022-07-25T08:48:34.261Z,37.90
2022-07-25T08:51:38.687Z,37.00
2022-07-25T08:54:42.583Z,36.50
2022-07-25T08:57:46.158Z,36.00
2022-07-25T09:00:50.757Z,35.60
2022-07-25T09:03:53.947Z,35.00
2022-07-25T09:06:57.266Z,34.50
2022-07-25T09:10:00.845Z,34.30
2022-07-25T09:13:07.821Z,34.30
2022-07-25T09:16:12.417Z,34.30
2022-07-25T09:19:19.074Z,34.20
2022-07-25T09:22:22.705Z,34.00
2022-07-25T09:25:29.861Z,34.00
2022-07-25T09:28:33.624Z,34.00
2022-07-25T09:31:40.666Z,33.80
2022-07-25T09:34:45.833Z,33.70
2022-07-25T09:37:48.965Z,33.40
2022-07-25T09:40:56.750Z,33.40
2022-07-25T09:43:59.950Z,33.20
2022-07-25T09:47:14.906Z,33.30
2022-07-25T09:50:18.874Z,33.40
2022-07-25T09:53:22.090Z,33.50
2022-07-25T09:56:25.197Z,33.10
2022-07-25T09:59:28.332Z,33.20
2022-07-25T10:02:42.652Z,33.40
2022-07-25T10:06:09.126Z,33.20
2022-07-25T10:09:12.992Z,33.20
2022-07-25T10:12:20.875Z,33.40
2022-07-25T10:15:24.033Z,33.70
2022-07-25T10:18:30.966Z,33.40
2022-07-25T10:21:34.130Z,33.30
2022-07-25T10:24:39.070Z,33.40
2022-07-25T10:27:48.655Z,33.50
2022-07-25T10:30:59.241Z,33.40
2022-07-25T10:34:06.272Z,33.60
2022-07-25T10:37:14.428Z,33.50
2022-07-25T10:40:27.709Z,33.40
2022-07-25T10:43:37.561Z,33.40
2022-07-25T10:46:41.132Z,33.40
2022-07-25T10:50:14.461Z,33.50
2022-07-25T10:53:11.394Z,33.50
2022-07-25T10:56:16.342Z,33.40
2022-07-25T10:59:28.597Z,33.10
2022-07-25T11:02:32.544Z,33.30
2022-07-25T11:05:47.603Z,33.40
2022-07-25T11:08:50.714Z,33.50
2022-07-25T11:11:55.891Z,33.80
2022-07-25T11:15:02.568Z,33.90
2022-07-25T11:18:06.584Z,34.00
2022-07-25T11:21:11.091Z,34.10
2022-07-25T11:24:14.470Z,33.70
2022-07-25T11:27:23.356Z,33.60
2022-07-25T11:30:29.127Z,33.80
2022-07-25T11:33:32.614Z,33.90
2022-07-25T11:36:37.309Z,34.10
2022-07-25T11:39:41.998Z,34.20
2022-07-25T11:42:46.592Z,33.70
2022-07-25T11:45:58.651Z,33.80
2022-07-25T11:49:08.664Z,33.80
2022-07-25T11:52:21.962Z,34.00
2022-07-25T11:55:30.436Z,33.80
2022-07-25T11:58:33.633Z,34.00
2022-07-25T12:01:38.358Z,34.00
2022-07-25T12:04:41.541Z,33.90
2022-07-25T12:07:47.860Z,33.90
2022-07-25T12:10:51.570Z,33.80
2022-07-25T12:14:05.534Z,33.80
2022-07-25T12:17:08.726Z,34.00
2022-07-25T12:20:16.469Z,33.90
2022-07-25T12:23:21.794Z,33.80
2022-07-25T12:26:24.952Z,34.00
2022-07-25T12:29:28.158Z,34.20
2022-07-25T12:32:31.413Z,34.10
2022-07-25T12:35:37.323Z,34.10
2022-07-25T12:38:41.968Z,34.20
2022-07-25T12:41:45.129Z,34.10
2022-07-25T12:44:48.795Z,34.20
2022-07-25T12:47:52.151Z,34.30
2022-07-25T12:50:55.312Z,34.50
2022-07-25T12:53:59.842Z,34.60
2022-07-25T12:57:03.412Z,34.50
2022-07-25T13:00:08.909Z,33.60
2022-07-25T13:03:12.037Z,33.20
2022-07-25T13:06:15.435Z,33.30
2022-07-25T13:09:20.000Z,33.40
2022-07-25T13:12:24.232Z,33.40
2022-07-25T13:15:28.336Z,33.50
2022-07-25T13:18:31.589Z,33.70
2022-07-25T13:21:34.690Z,33.80
2022-07-25T13:24:39.368Z,33.80
2022-07-25T13:27:42.470Z,33.80
2022-07-25T13:30:45.594Z,33.90
2022-07-25T13:33:50.712Z,33.90
2022-07-25T13:36:53.836Z,34.00
2022-07-25T13:39:58.397Z,34.00
2022-07-25T13:43:01.449Z,34.00
2022-07-25T13:46:04.988Z,33.70
2022-07-25T13:49:08.638Z,33.80
2022-07-25T13:52:12.082Z,33.60
2022-07-25T13:55:16.513Z,33.60
2022-07-25T13:58:19.714Z,33.50
2022-07-25T14:01:22.888Z,33.50
2022-07-25T14:04:25.996Z,33.50
2022-07-25T14:07:29.211Z,33.60
2022-07-25T14:10:33.763Z,33.70
2022-07-25T14:13:37.049Z,33.50
2022-07-25T14:16:40.311Z,33.50
2022-07-25T14:19:43.511Z,33.60
2022-07-25T14:22:46.642Z,33.70
2022-07-25T14:25:51.139Z,33.80
2022-07-25T14:28:54.281Z,33.90
2022-07-25T14:31:57.612Z,33.80
2022-07-25T14:35:02.403Z,33.80
2022-07-25T14:38:06.511Z,33.90
2022-07-25T14:41:13.323Z,33.90
2022-07-25T14:44:16.559Z,34.00
2022-07-25T14:47:19.755Z,34.10
2022-07-25T14:50:23.997Z,34.10
2022-07-25T14:53:27.102Z,34.10
2022-07-25T14:56:31.645Z,34.20
2022-07-25T14:59:34.783Z,34.10
2022-07-25T15:02:37.941Z,33.90
2022-07-25T15:05:42.819Z,33.70
2022-07-25T15:08:46.138Z,33.70
2022-07-25T15:11:50.834Z,33.70
2022-07-25T15:14:53.922Z,33.80
2022-07-25T15:17:57.202Z,33.80
2022-07-25T15:21:00.407Z,33.60
2022-07-25T15:24:03.955Z,33.70
2022-07-25T15:27:09.596Z,33.90
2022-07-25T15:30:13.820Z,33.90
2022-07-25T15:33:17.725Z,34.00
2022-07-25T15:36:24.478Z,34.10
2022-07-25T15:39:30.305Z,34.20
2022-07-25T15:42:35.425Z,34.20
2022-07-25T15:45:39.978Z,34.10
2022-07-25T15:48:44.749Z,33.90
2022-07-25T15:51:47.955Z,33.60
2022-07-25T15:54:51.162Z,33.50
2022-07-25T15:57:55.697Z,33.40
2022-07-25T16:00:58.867Z,33.40
2022-07-25T16:04:02.212Z,33.50
2022-07-25T16:07:05.601Z,33.60
2022-07-25T16:10:09.412Z,33.90
2022-07-25T16:13:13.955Z,34.00
2022-07-25T16:16:17.141Z,34.00
2022-07-25T16:19:20.374Z,33.90
2022-07-25T16:22:23.586Z,33.90
2022-07-25T16:25:28.095Z,33.80
2022-07-25T16:28:33.745Z,33.80
2022-07-25T16:31:36.973Z,34.00
2022-07-25T16:34:40.227Z,34.00
2022-07-25T16:37:43.391Z,34.00
2022-07-25T16:40:46.646Z,33.80
2022-07-25T16:43:51.214Z,33.60
2022-07-25T16:46:54.441Z,33.50
2022-07-25T16:49:57.682Z,33.50
2022-07-25T16:53:00.830Z,33.50
2022-07-25T16:56:04.224Z,33.50
2022-07-25T16:59:10.027Z,33.30
2022-07-25T17:02:13.637Z,33.40
2022-07-25T17:05:16.938Z,33.40
2022-07-25T17:08:20.060Z,33.30
2022-07-25T17:11:23.556Z,33.10
2022-07-25T17:14:30.330Z,32.90
2022-07-25T17:17:33.652Z,32.80
2022-07-25T17:20:36.849Z,32.60
2022-07-25T17:23:39.951Z,32.60
2022-07-25T17:26:43.176Z,32.50
2022-07-25T17:29:47.623Z,32.30
2022-07-25T17:32:51.251Z,32.30
2022-07-25T17:35:54.798Z,32.20
2022-07-25T17:38:58.041Z,32.10
2022-07-25T17:42:01.660Z,32.00
2022-07-25T17:45:07.122Z,32.00
2022-07-25T17:48:10.324Z,31.90
2022-07-25T17:51:13.530Z,31.80
2022-07-25T17:54:16.757Z,31.70
2022-07-25T17:57:20.053Z,31.60
2022-07-25T18:00:25.073Z,31.50
2022-07-25T18:03:28.209Z,31.50
2022-07-25T18:06:31.963Z,31.40
2022-07-25T18:09:35.231Z,31.40
2022-07-25T18:12:38.409Z,31.30
2022-07-25T18:15:43.650Z,31.30
2022-07-25T18:18:46.900Z,31.20
2022-07-25T18:21:50.121Z,31.10
2022-07-25T18:24:53.243Z,31.10
2022-07-25T18:27:56.460Z,31.10
2022-07-25T18:31:01.144Z,30.90
2022-07-25T18:34:05.612Z,30.80
2022-07-25T18:37:10.002Z,30.70
2022-07-25T18:40:14.314Z,30.60
2022-07-25T18:43:17.423Z,30.50
2022-07-25T18:46:22.374Z,30.40
2022-07-25T18:49:27.227Z,30.30
2022-07-25T18:52:34.788Z,30.30
2022-07-25T18:55:37.987Z,30.30
2022-07-25T18:58:41.880Z,30.20
2022-07-25T19:01:46.432Z,30.20
2022-07-25T19:04:49.745Z,30.10
2022-07-25T19:07:52.969Z,30.10
2022-07-25T19:10:56.239Z,30.00
2022-07-25T19:13:59.407Z,30.00
2022-07-25T19:17:04.757Z,29.90
2022-07-25T19:20:09.532Z,29.90
2022-07-25T19:23:12.752Z,29.90
2022-07-25T19:26:15.971Z,29.80
2022-07-25T19:29:19.231Z,29.70
2022-07-25T19:32:23.769Z,29.60
2022-07-25T19:35:27.025Z,29.60
2022-07-25T19:38:30.216Z,29.50
2022-07-25T19:41:33.507Z,29.40
2022-07-25T19:44:36.773Z,29.40
2022-07-25T19:47:41.277Z,29.20
2022-07-25T19:50:44.470Z,29.20
2022-07-25T19:53:47.645Z,29.10
2022-07-25T19:56:50.757Z,29.00
2022-07-25T19:59:53.938Z,28.90
2022-07-25T20:02:58.522Z,29.00
2022-07-25T20:06:07.502Z,28.90
2022-07-25T20:09:11.541Z,28.90
2022-07-25T20:12:14.812Z,28.80
2022-07-25T20:15:18.069Z,28.80
2022-07-25T20:18:22.580Z,28.80
2022-07-25T20:21:25.726Z,28.70
2022-07-25T20:24:28.978Z,28.80
2022-07-25T20:27:32.662Z,28.70
2022-07-25T20:30:36.177Z,28.70
2022-07-25T20:33:40.834Z,28.70
2022-07-25T20:36:44.041Z,28.70
2022-07-25T20:39:47.175Z,28.70
2022-07-25T20:42:51.507Z,28.70
2022-07-25T20:45:54.696Z,28.70
2022-07-25T20:48:59.322Z,28.50
2022-07-25T20:52:02.509Z,28.60
2022-07-25T20:55:08.133Z,28.50
2022-07-25T20:58:11.235Z,28.50
2022-07-25T21:01:14.431Z,28.50
2022-07-25T21:04:19.084Z,28.50
2022-07-25T21:07:22.258Z,28.50
2022-07-25T21:10:25.970Z,28.40
2022-07-25T21:13:30.884Z,28.50
2022-07-25T21:16:36.217Z,28.50
2022-07-25T21:19:40.739Z,28.60
2022-07-25T21:22:44.703Z,28.50
2022-07-25T21:25:48.860Z,28.50
2022-07-25T21:28:52.129Z,28.50
2022-07-25T21:31:55.500Z,28.50
2022-07-25T21:35:00.223Z,28.50
2022-07-25T21:38:03.435Z,28.40
2022-07-25T21:41:07.968Z,28.40
2022-07-25T21:44:11.126Z,28.30
2022-07-25T21:47:14.562Z,28.30
2022-07-25T21:50:36.639Z,28.20
2022-07-25T21:53:47.813Z,28.20
2022-07-25T21:56:52.493Z,28.20
2022-07-25T21:59:55.607Z,28.10
2022-07-25T22:02:58.986Z,28.00
2022-07-25T22:06:03.579Z,28.00
2022-07-25T22:09:08.216Z,28.00
2022-07-25T22:12:11.738Z,28.00
2022-07-25T22:15:15.329Z,27.90
2022-07-25T22:18:18.488Z,27.90
2022-07-25T22:21:23.057Z,27.70
2022-07-25T22:24:26.199Z,27.60
2022-07-25T22:27:29.373Z,27.60
2022-07-25T22:30:33.777Z,27.70
2022-07-25T22:33:38.252Z,27.70
2022-07-25T22:36:42.710Z,27.70
2022-07-25T22:39:45.830Z,27.80
2022-07-25T22:42:48.934Z,27.80
2022-07-25T22:45:52.614Z,27.70
2022-07-25T22:48:55.963Z,27.80
2022-07-25T22:52:00.524Z,27.80
2022-07-25T22:55:03.880Z,27.70
2022-07-25T22:58:07.041Z,27.70
2022-07-25T23:01:10.976Z,27.70
2022-07-25T23:04:14.238Z,27.70
2022-07-25T23:07:18.815Z,27.60
2022-07-25T23:10:22.186Z,27.70
2022-07-25T23:13:25.258Z,27.70
2022-07-25T23:16:28.727Z,27.70
2022-07-25T23:19:31.889Z,27.60
2022-07-25T23:22:36.415Z,27.70
2022-07-25T23:25:39.650Z,27.70
2022-07-25T23:28:43.109Z,27.60
2022-07-25T23:31:46.648Z,27.60
2022-07-25T23:34:49.947Z,27.60
2022-07-25T23:37:54.502Z,27.50
2022-07-25T23:40:57.670Z,27.40
2022-07-25T23:44:01.125Z,27.30
2022-07-25T23:47:05.556Z,27.40
2022-07-25T23:50:13.390Z,27.40
2022-07-25T23:53:17.841Z,27.30
2022-07-25T23:56:21.421Z,27.30
2022-07-25T23:59:24.650Z,27.30
